sensor_id;sensor_type;location;lat;lon;timestamp;temperature;humidity
23289;DHT22;11813;50.834;4.280;2023-02-28T00:00:07;3.50;99.90
23289;DHT22;11813;50.834;4.280;2023-02-28T00:02:40;3.30;99.90
23289;DHT22;11813;50.834;4.280;2023-02-28T00:05:07;3.30;99.90
23289;DHT22;11813;50.834;4.280;2023-02-28T00:07:33;3.30;99.90
23289;DHT22;11813;50.834;4.280;2023-02-28T00:09:59;3.10;99.90
23289;DHT22;11813;50.834;4.280;2023-02-28T00:12:25;3.10;99.90
23289;DHT22;11813;50.834;4.280;2023-02-28T00:14:51;3.00;99.90
23289;DHT22;11813;50.834;4.280;2023-02-28T00:17:17;3.10;99.90
23289;DHT22;11813;50.834;4.280;2023-02-28T00:19:47;3.10;99.90
23289;DHT22;11813;50.834;4.280;2023-02-28T00:22:14;3.20;99.90
23289;DHT22;11813;50.834;4.280;2023-02-28T00:24:39;3.20;99.90
23289;DHT22;11813;50.834;4.280;2023-02-28T00:27:05;3.20;99.90
23289;DHT22;11813;50.834;4.280;2023-02-28T00:29:31;3.30;99.90
23289;DHT22;11813;50.834;4.280;2023-02-28T00:31:56;3.20;99.90
23289;DHT22;11813;50.834;4.280;2023-02-28T00:34:22;3.20;99.90
23289;DHT22;11813;50.834;4.280;2023-02-28T00:36:47;3.20;99.90
23289;DHT22;11813;50.834;4.280;2023-02-28T00:39:16;3.10;99.90
23289;DHT22;11813;50.834;4.280;2023-02-28T00:41:42;3.10;99.90
23289;DHT22;11813;50.834;4.280;2023-02-28T00:44:07;3.10;99.90
23289;DHT22;11813;50.834;4.280;2023-02-28T00:46:33;3.10;99.90
23289;DHT22;11813;50.834;4.280;2023-02-28T00:48:59;3.10;99.90
23289;DHT22;11813;50.834;4.280;2023-02-28T00:51:24;3.00;99.90
23289;DHT22;11813;50.834;4.280;2023-02-28T00:53:50;3.00;99.90
23289;DHT22;11813;50.834;4.280;2023-02-28T00:56:15;2.90;99.90
23289;DHT22;11813;50.834;4.280;2023-02-28T00:58:41;3.00;99.90
23289;DHT22;11813;50.834;4.280;2023-02-28T01:01:06;3.00;99.90
23289;DHT22;11813;50.834;4.280;2023-02-28T01:03:32;3.10;99.90
23289;DHT22;11813;50.834;4.280;2023-02-28T01:05:58;3.00;99.90
23289;DHT22;11813;50.834;4.280;2023-02-28T01:08:23;2.80;99.90
23289;DHT22;11813;50.834;4.280;2023-02-28T01:10:49;2.80;99.90
23289;DHT22;11813;50.834;4.280;2023-02-28T01:13:15;2.90;99.90
23289;DHT22;11813;50.834;4.280;2023-02-28T01:15:46;2.80;99.90
23289;DHT22;11813;50.834;4.280;2023-02-28T01:18:14;2.90;99.90
23289;DHT22;11813;50.834;4.280;2023-02-28T01:20:40;2.90;99.90
23289;DHT22;11813;50.834;4.280;2023-02-28T01:23:05;2.90;99.90
23289;DHT22;11813;50.834;4.280;2023-02-28T01:25:31;2.80;99.90
23289;DHT22;11813;50.834;4.280;2023-02-28T01:27:59;2.90;99.90
23289;DHT22;11813;50.834;4.280;2023-02-28T01:30:24;2.90;99.90
23289;DHT22;11813;50.834;4.280;2023-02-28T01:32:50;3.00;99.90
23289;DHT22;11813;50.834;4.280;2023-02-28T01:35:18;2.80;99.90
23289;DHT22;11813;50.834;4.280;2023-02-28T01:37:44;2.80;99.90
23289;DHT22;11813;50.834;4.280;2023-02-28T01:40:10;2.80;99.90
23289;DHT22;11813;50.834;4.280;2023-02-28T01:42:36;2.70;99.90
23289;DHT22;11813;50.834;4.280;2023-02-28T01:47:41;2.60;99.90
23289;DHT22;11813;50.834;4.280;2023-02-28T01:50:15;2.50;99.90
23289;DHT22;11813;50.834;4.280;2023-02-28T01:52:42;2.40;99.90
23289;DHT22;11813;50.834;4.280;2023-02-28T01:55:09;2.40;99.90
23289;DHT22;11813;50.834;4.280;2023-02-28T01:57:40;2.30;99.90
23289;DHT22;11813;50.834;4.280;2023-02-28T02:00:15;2.30;99.90
23289;DHT22;11813;50.834;4.280;2023-02-28T02:02:44;2.30;99.90
23289;DHT22;11813;50.834;4.280;2023-02-28T02:05:21;2.50;99.90
23289;DHT22;11813;50.834;4.280;2023-02-28T02:07:51;2.50;99.90
23289;DHT22;11813;50.834;4.280;2023-02-28T02:10:21;2.40;99.90
23289;DHT22;11813;50.834;4.280;2023-02-28T02:13:14;2.40;99.90
23289;DHT22;11813;50.834;4.280;2023-02-28T02:19:28;2.50;99.90
23289;DHT22;11813;50.834;4.280;2023-02-28T02:28:06;2.30;99.90
23289;DHT22;11813;50.834;4.280;2023-02-28T02:31:04;2.30;99.90
23289;DHT22;11813;50.834;4.280;2023-02-28T02:38:53;2.20;99.90
23289;DHT22;11813;50.834;4.280;2023-02-28T02:41:38;2.30;99.90
23289;DHT22;11813;50.834;4.280;2023-02-28T02:44:39;2.30;99.90
23289;DHT22;11813;50.834;4.280;2023-02-28T02:47:08;2.30;99.90
23289;DHT22;11813;50.834;4.280;2023-02-28T02:49:37;2.40;99.90
23289;DHT22;11813;50.834;4.280;2023-02-28T02:52:06;2.30;99.90
23289;DHT22;11813;50.834;4.280;2023-02-28T02:54:38;2.30;99.90
23289;DHT22;11813;50.834;4.280;2023-02-28T02:57:11;2.20;99.90
23289;DHT22;11813;50.834;4.280;2023-02-28T02:59:39;2.20;99.90
23289;DHT22;11813;50.834;4.280;2023-02-28T03:02:08;2.10;99.90
23289;DHT22;11813;50.834;4.280;2023-02-28T03:04:40;2.10;99.90
23289;DHT22;11813;50.834;4.280;2023-02-28T03:07:07;2.10;99.90
23289;DHT22;11813;50.834;4.280;2023-02-28T03:09:33;2.20;99.90
23289;DHT22;11813;50.834;4.280;2023-02-28T03:12:01;2.10;99.90
23289;DHT22;11813;50.834;4.280;2023-02-28T03:20:17;2.20;99.90
23289;DHT22;11813;50.834;4.280;2023-02-28T03:22:57;2.20;99.90
23289;DHT22;11813;50.834;4.280;2023-02-28T03:26:02;2.20;99.90
23289;DHT22;11813;50.834;4.280;2023-02-28T03:28:38;2.10;99.90
23289;DHT22;11813;50.834;4.280;2023-02-28T03:31:16;2.10;99.90
23289;DHT22;11813;50.834;4.280;2023-02-28T03:33:49;2.00;99.90
23289;DHT22;11813;50.834;4.280;2023-02-28T03:36:23;2.00;99.90
23289;DHT22;11813;50.834;4.280;2023-02-28T03:41:23;2.00;99.90
23289;DHT22;11813;50.834;4.280;2023-02-28T03:43:58;2.00;99.90
23289;DHT22;11813;50.834;4.280;2023-02-28T03:46:27;2.00;99.90
23289;DHT22;11813;50.834;4.280;2023-02-28T03:49:01;2.00;99.90
23289;DHT22;11813;50.834;4.280;2023-02-28T03:51:28;2.00;99.90
23289;DHT22;11813;50.834;4.280;2023-02-28T03:53:58;2.00;99.90
23289;DHT22;11813;50.834;4.280;2023-02-28T03:56:33;2.00;99.90
23289;DHT22;11813;50.834;4.280;2023-02-28T03:59:13;2.00;99.90
23289;DHT22;11813;50.834;4.280;2023-02-28T04:01:45;1.90;99.90
23289;DHT22;11813;50.834;4.280;2023-02-28T04:04:11;2.00;99.90
23289;DHT22;11813;50.834;4.280;2023-02-28T04:06:38;2.00;99.90
23289;DHT22;11813;50.834;4.280;2023-02-28T04:09:05;1.90;99.90
23289;DHT22;11813;50.834;4.280;2023-02-28T04:14:06;1.80;99.90
23289;DHT22;11813;50.834;4.280;2023-02-28T04:16:33;1.80;99.90
23289;DHT22;11813;50.834;4.280;2023-02-28T04:18:59;1.80;99.90
23289;DHT22;11813;50.834;4.280;2023-02-28T04:21:39;1.70;99.90
23289;DHT22;11813;50.834;4.280;2023-02-28T04:24:06;1.70;99.90
23289;DHT22;11813;50.834;4.280;2023-02-28T04:26:34;1.70;99.90
23289;DHT22;11813;50.834;4.280;2023-02-28T04:29:00;1.60;99.90
23289;DHT22;11813;50.834;4.280;2023-02-28T04:31:26;1.70;99.90
23289;DHT22;11813;50.834;4.280;2023-02-28T04:33:52;1.70;99.90
23289;DHT22;11813;50.834;4.280;2023-02-28T04:36:18;1.70;99.90
23289;DHT22;11813;50.834;4.280;2023-02-28T04:38:44;1.70;99.90
23289;DHT22;11813;50.834;4.280;2023-02-28T04:41:11;1.70;99.90
23289;DHT22;11813;50.834;4.280;2023-02-28T04:43:36;1.70;99.90
23289;DHT22;11813;50.834;4.280;2023-02-28T04:46:04;1.70;99.90
23289;DHT22;11813;50.834;4.280;2023-02-28T04:48:32;1.70;99.90
23289;DHT22;11813;50.834;4.280;2023-02-28T04:51:09;1.70;99.90
23289;DHT22;11813;50.834;4.280;2023-02-28T04:53:36;1.70;99.90
23289;DHT22;11813;50.834;4.280;2023-02-28T04:56:03;1.80;99.90
23289;DHT22;11813;50.834;4.280;2023-02-28T04:58:28;1.80;99.90
23289;DHT22;11813;50.834;4.280;2023-02-28T05:01:02;1.70;99.90
23289;DHT22;11813;50.834;4.280;2023-02-28T05:03:28;1.50;99.90
23289;DHT22;11813;50.834;4.280;2023-02-28T05:05:53;1.60;99.90
23289;DHT22;11813;50.834;4.280;2023-02-28T05:08:19;1.70;99.90
23289;DHT22;11813;50.834;4.280;2023-02-28T05:10:44;1.80;99.90
23289;DHT22;11813;50.834;4.280;2023-02-28T05:13:13;1.80;99.90
23289;DHT22;11813;50.834;4.280;2023-02-28T05:15:38;1.80;99.90
23289;DHT22;11813;50.834;4.280;2023-02-28T05:18:04;1.90;99.90
23289;DHT22;11813;50.834;4.280;2023-02-28T05:20:30;1.80;99.90
23289;DHT22;11813;50.834;4.280;2023-02-28T05:22:57;1.80;99.90
23289;DHT22;11813;50.834;4.280;2023-02-28T05:25:23;1.70;99.90
23289;DHT22;11813;50.834;4.280;2023-02-28T05:27:49;1.80;99.90
23289;DHT22;11813;50.834;4.280;2023-02-28T05:30:14;1.80;99.90
23289;DHT22;11813;50.834;4.280;2023-02-28T05:32:41;1.90;99.90
23289;DHT22;11813;50.834;4.280;2023-02-28T05:35:12;1.90;99.90
23289;DHT22;11813;50.834;4.280;2023-02-28T05:37:39;2.00;99.90
23289;DHT22;11813;50.834;4.280;2023-02-28T05:40:06;2.10;99.90
23289;DHT22;11813;50.834;4.280;2023-02-28T05:42:32;2.20;99.90
23289;DHT22;11813;50.834;4.280;2023-02-28T05:44:58;2.10;99.90
23289;DHT22;11813;50.834;4.280;2023-02-28T05:47:24;2.20;99.90
23289;DHT22;11813;50.834;4.280;2023-02-28T05:49:49;2.10;99.90
23289;DHT22;11813;50.834;4.280;2023-02-28T05:52:16;2.00;99.90
23289;DHT22;11813;50.834;4.280;2023-02-28T05:54:42;2.10;99.90
23289;DHT22;11813;50.834;4.280;2023-02-28T05:57:07;2.20;99.90
23289;DHT22;11813;50.834;4.280;2023-02-28T05:59:33;2.20;99.90
23289;DHT22;11813;50.834;4.280;2023-02-28T06:01:58;2.10;99.90
23289;DHT22;11813;50.834;4.280;2023-02-28T06:04:24;2.00;99.90
23289;DHT22;11813;50.834;4.280;2023-02-28T06:06:50;2.10;99.90
23289;DHT22;11813;50.834;4.280;2023-02-28T06:09:17;2.30;99.90
23289;DHT22;11813;50.834;4.280;2023-02-28T06:11:43;2.40;99.90
23289;DHT22;11813;50.834;4.280;2023-02-28T06:14:15;2.40;99.90
23289;DHT22;11813;50.834;4.280;2023-02-28T06:16:41;2.40;99.90
23289;DHT22;11813;50.834;4.280;2023-02-28T06:19:06;2.50;99.90
23289;DHT22;11813;50.834;4.280;2023-02-28T06:21:32;2.40;99.90
23289;DHT22;11813;50.834;4.280;2023-02-28T06:23:58;2.40;99.90
23289;DHT22;11813;50.834;4.280;2023-02-28T06:26:24;2.30;99.90
23289;DHT22;11813;50.834;4.280;2023-02-28T06:28:50;2.50;99.90
23289;DHT22;11813;50.834;4.280;2023-02-28T06:31:17;2.50;99.90
23289;DHT22;11813;50.834;4.280;2023-02-28T06:33:44;2.60;99.90
23289;DHT22;11813;50.834;4.280;2023-02-28T06:36:11;2.50;99.90
23289;DHT22;11813;50.834;4.280;2023-02-28T06:38:37;2.50;99.90
23289;DHT22;11813;50.834;4.280;2023-02-28T06:41:04;2.50;99.90
23289;DHT22;11813;50.834;4.280;2023-02-28T06:43:33;2.50;99.90
23289;DHT22;11813;50.834;4.280;2023-02-28T06:46:00;2.50;99.90
23289;DHT22;11813;50.834;4.280;2023-02-28T06:48:26;2.50;99.90
23289;DHT22;11813;50.834;4.280;2023-02-28T06:50:52;2.60;99.90
23289;DHT22;11813;50.834;4.280;2023-02-28T06:53:26;2.50;99.90
23289;DHT22;11813;50.834;4.280;2023-02-28T06:55:51;2.60;99.90
23289;DHT22;11813;50.834;4.280;2023-02-28T06:58:17;2.70;99.90
23289;DHT22;11813;50.834;4.280;2023-02-28T07:00:49;2.70;99.90
23289;DHT22;11813;50.834;4.280;2023-02-28T07:03:15;2.70;99.90
23289;DHT22;11813;50.834;4.280;2023-02-28T07:05:41;2.80;99.90
23289;DHT22;11813;50.834;4.280;2023-02-28T07:08:07;2.70;99.90
23289;DHT22;11813;50.834;4.280;2023-02-28T07:10:33;2.70;99.90
23289;DHT22;11813;50.834;4.280;2023-02-28T07:13:00;2.80;99.90
23289;DHT22;11813;50.834;4.280;2023-02-28T07:15:25;2.70;99.90
23289;DHT22;11813;50.834;4.280;2023-02-28T07:17:51;2.90;99.90
23289;DHT22;11813;50.834;4.280;2023-02-28T07:20:17;2.90;99.90
23289;DHT22;11813;50.834;4.280;2023-02-28T07:22:42;3.10;99.90
23289;DHT22;11813;50.834;4.280;2023-02-28T07:25:09;3.20;99.90
23289;DHT22;11813;50.834;4.280;2023-02-28T07:27:34;3.10;99.90
23289;DHT22;11813;50.834;4.280;2023-02-28T07:30:00;3.10;99.90
23289;DHT22;11813;50.834;4.280;2023-02-28T07:32:29;3.10;99.90
23289;DHT22;11813;50.834;4.280;2023-02-28T07:34:54;3.20;99.90
23289;DHT22;11813;50.834;4.280;2023-02-28T07:37:20;3.20;99.90
23289;DHT22;11813;50.834;4.280;2023-02-28T07:39:46;3.10;99.90
23289;DHT22;11813;50.834;4.280;2023-02-28T07:42:12;3.20;99.90
23289;DHT22;11813;50.834;4.280;2023-02-28T07:44:41;3.50;99.90
23289;DHT22;11813;50.834;4.280;2023-02-28T07:47:10;3.60;99.90
23289;DHT22;11813;50.834;4.280;2023-02-28T07:49:37;3.80;99.90
23289;DHT22;11813;50.834;4.280;2023-02-28T07:52:04;3.90;99.90
23289;DHT22;11813;50.834;4.280;2023-02-28T07:54:30;3.90;99.90
23289;DHT22;11813;50.834;4.280;2023-02-28T07:56:56;4.00;99.90
23289;DHT22;11813;50.834;4.280;2023-02-28T07:59:21;4.10;99.90
23289;DHT22;11813;50.834;4.280;2023-02-28T08:01:47;3.80;99.90
23289;DHT22;11813;50.834;4.280;2023-02-28T08:04:16;3.60;99.90
23289;DHT22;11813;50.834;4.280;2023-02-28T08:06:41;3.60;99.90
23289;DHT22;11813;50.834;4.280;2023-02-28T08:09:07;3.60;99.90
23289;DHT22;11813;50.834;4.280;2023-02-28T08:11:33;3.70;99.90
23289;DHT22;11813;50.834;4.280;2023-02-28T08:13:58;3.80;99.90
23289;DHT22;11813;50.834;4.280;2023-02-28T08:16:24;3.90;99.90
23289;DHT22;11813;50.834;4.280;2023-02-28T08:18:51;4.10;99.90
23289;DHT22;11813;50.834;4.280;2023-02-28T08:21:17;4.30;99.90
23289;DHT22;11813;50.834;4.280;2023-02-28T08:23:43;4.40;99.90
23289;DHT22;11813;50.834;4.280;2023-02-28T08:26:08;4.40;99.90
23289;DHT22;11813;50.834;4.280;2023-02-28T08:28:34;4.20;99.90
23289;DHT22;11813;50.834;4.280;2023-02-28T08:31:00;4.30;99.90
23289;DHT22;11813;50.834;4.280;2023-02-28T08:33:27;4.40;99.90
23289;DHT22;11813;50.834;4.280;2023-02-28T08:35:56;4.50;99.90
23289;DHT22;11813;50.834;4.280;2023-02-28T08:38:22;4.80;99.90
23289;DHT22;11813;50.834;4.280;2023-02-28T08:40:48;5.00;99.90
23289;DHT22;11813;50.834;4.280;2023-02-28T08:43:14;5.20;99.90
23289;DHT22;11813;50.834;4.280;2023-02-28T08:45:40;5.20;99.90
23289;DHT22;11813;50.834;4.280;2023-02-28T08:48:05;5.30;99.90
23289;DHT22;11813;50.834;4.280;2023-02-28T08:50:31;5.40;99.90
23289;DHT22;11813;50.834;4.280;2023-02-28T08:52:56;5.40;99.90
23289;DHT22;11813;50.834;4.280;2023-02-28T08:55:22;5.30;99.90
23289;DHT22;11813;50.834;4.280;2023-02-28T08:57:48;5.20;99.90
23289;DHT22;11813;50.834;4.280;2023-02-28T09:00:13;5.20;99.90
23289;DHT22;11813;50.834;4.280;2023-02-28T09:02:40;5.10;99.90
23289;DHT22;11813;50.834;4.280;2023-02-28T09:05:08;5.10;99.90
23289;DHT22;11813;50.834;4.280;2023-02-28T09:07:33;5.20;99.90
23289;DHT22;11813;50.834;4.280;2023-02-28T09:09:59;5.30;99.90
23289;DHT22;11813;50.834;4.280;2023-02-28T09:12:26;5.40;99.90
23289;DHT22;11813;50.834;4.280;2023-02-28T09:14:53;5.50;99.90
23289;DHT22;11813;50.834;4.280;2023-02-28T09:17:19;5.50;99.90
23289;DHT22;11813;50.834;4.280;2023-02-28T09:19:45;5.60;99.90
23289;DHT22;11813;50.834;4.280;2023-02-28T09:22:12;5.80;99.90
23289;DHT22;11813;50.834;4.280;2023-02-28T09:24:38;6.00;99.90
23289;DHT22;11813;50.834;4.280;2023-02-28T09:27:04;5.90;99.90
23289;DHT22;11813;50.834;4.280;2023-02-28T09:29:33;5.90;99.90
23289;DHT22;11813;50.834;4.280;2023-02-28T09:31:59;6.10;99.90
23289;DHT22;11813;50.834;4.280;2023-02-28T09:34:25;6.30;99.90
23289;DHT22;11813;50.834;4.280;2023-02-28T09:36:51;6.50;99.90
23289;DHT22;11813;50.834;4.280;2023-02-28T09:39:20;6.70;99.90
23289;DHT22;11813;50.834;4.280;2023-02-28T09:41:48;7.00;99.90
23289;DHT22;11813;50.834;4.280;2023-02-28T09:44:38;6.90;99.90
23289;DHT22;11813;50.834;4.280;2023-02-28T09:47:18;6.80;99.90
23289;DHT22;11813;50.834;4.280;2023-02-28T09:49:48;6.70;99.90
23289;DHT22;11813;50.834;4.280;2023-02-28T09:52:18;6.80;99.90
23289;DHT22;11813;50.834;4.280;2023-02-28T09:54:45;6.80;99.90
23289;DHT22;11813;50.834;4.280;2023-02-28T09:57:31;6.90;99.90
23289;DHT22;11813;50.834;4.280;2023-02-28T10:05:38;8.00;99.90
23289;DHT22;11813;50.834;4.280;2023-02-28T10:10:54;8.10;99.90
23289;DHT22;11813;50.834;4.280;2023-02-28T10:16:11;8.30;99.90
23289;DHT22;11813;50.834;4.280;2023-02-28T10:18:46;8.10;99.90
23289;DHT22;11813;50.834;4.280;2023-02-28T10:21:28;7.80;99.90
23289;DHT22;11813;50.834;4.280;2023-02-28T10:24:02;7.80;99.90
23289;DHT22;11813;50.834;4.280;2023-02-28T10:26:31;7.90;99.90
23289;DHT22;11813;50.834;4.280;2023-02-28T10:28:57;8.10;99.90
23289;DHT22;11813;50.834;4.280;2023-02-28T10:31:23;8.30;99.90
23289;DHT22;11813;50.834;4.280;2023-02-28T10:33:48;8.40;99.90
23289;DHT22;11813;50.834;4.280;2023-02-28T10:36:16;8.40;99.90
23289;DHT22;11813;50.834;4.280;2023-02-28T10:38:44;8.40;99.90
23289;DHT22;11813;50.834;4.280;2023-02-28T10:41:11;8.40;99.90
23289;DHT22;11813;50.834;4.280;2023-02-28T10:43:38;8.40;99.90
23289;DHT22;11813;50.834;4.280;2023-02-28T10:48:44;8.50;99.90
23289;DHT22;11813;50.834;4.280;2023-02-28T10:51:16;8.30;99.90
23289;DHT22;11813;50.834;4.280;2023-02-28T10:53:52;8.60;99.90
23289;DHT22;11813;50.834;4.280;2023-02-28T10:56:23;8.90;99.90
23289;DHT22;11813;50.834;4.280;2023-02-28T10:59:00;9.00;99.90
23289;DHT22;11813;50.834;4.280;2023-02-28T11:01:44;9.30;99.90
23289;DHT22;11813;50.834;4.280;2023-02-28T11:09:39;9.70;99.90
23289;DHT22;11813;50.834;4.280;2023-02-28T11:12:07;10.10;99.90
23289;DHT22;11813;50.834;4.280;2023-02-28T11:14:46;10.20;99.90
23289;DHT22;11813;50.834;4.280;2023-02-28T11:17:25;10.10;99.90
23289;DHT22;11813;50.834;4.280;2023-02-28T11:19:54;10.20;99.90
23289;DHT22;11813;50.834;4.280;2023-02-28T11:22:24;10.40;99.90
23289;DHT22;11813;50.834;4.280;2023-02-28T11:24:56;10.30;99.90
23289;DHT22;11813;50.834;4.280;2023-02-28T11:27:50;10.30;99.90
23289;DHT22;11813;50.834;4.280;2023-02-28T11:30:36;10.70;99.90
23289;DHT22;11813;50.834;4.280;2023-02-28T11:33:23;10.80;99.90
23289;DHT22;11813;50.834;4.280;2023-02-28T11:35:52;10.80;99.90
23289;DHT22;11813;50.834;4.280;2023-02-28T11:38:19;10.40;99.90
23289;DHT22;11813;50.834;4.280;2023-02-28T11:49:23;10.50;99.90
23289;DHT22;11813;50.834;4.280;2023-02-28T11:52:14;10.60;99.90
23289;DHT22;11813;50.834;4.280;2023-02-28T12:05:40;11.10;99.90
23289;DHT22;11813;50.834;4.280;2023-02-28T12:08:41;10.90;99.90
23289;DHT22;11813;50.834;4.280;2023-02-28T12:19:19;11.70;99.90
23289;DHT22;11813;50.834;4.280;2023-02-28T12:27:27;12.30;99.90
23289;DHT22;11813;50.834;4.280;2023-02-28T12:30:13;12.40;99.90
23289;DHT22;11813;50.834;4.280;2023-02-28T12:32:44;11.80;99.90
23289;DHT22;11813;50.834;4.280;2023-02-28T12:35:12;12.00;99.90
23289;DHT22;11813;50.834;4.280;2023-02-28T12:40:13;12.60;99.90
23289;DHT22;11813;50.834;4.280;2023-02-28T12:42:52;12.70;99.90
23289;DHT22;11813;50.834;4.280;2023-02-28T12:45:20;12.60;99.90
23289;DHT22;11813;50.834;4.280;2023-02-28T12:47:54;12.40;99.90
23289;DHT22;11813;50.834;4.280;2023-02-28T12:50:23;12.60;99.90
23289;DHT22;11813;50.834;4.280;2023-02-28T12:58:43;13.70;99.90
23289;DHT22;11813;50.834;4.280;2023-02-28T13:03:40;13.80;99.90
23289;DHT22;11813;50.834;4.280;2023-02-28T13:06:26;14.00;99.90
23289;DHT22;11813;50.834;4.280;2023-02-28T13:09:14;14.20;99.20
23289;DHT22;11813;50.834;4.280;2023-02-28T13:19:43;14.00;99.80
23289;DHT22;11813;50.834;4.280;2023-02-28T13:22:40;14.00;99.90
23289;DHT22;11813;50.834;4.280;2023-02-28T13:27:47;14.40;97.30
23289;DHT22;11813;50.834;4.280;2023-02-28T13:33:29;13.80;98.00
23289;DHT22;11813;50.834;4.280;2023-02-28T13:36:07;14.10;97.50
23289;DHT22;11813;50.834;4.280;2023-02-28T13:38:37;14.30;97.30
23289;DHT22;11813;50.834;4.280;2023-02-28T13:49:29;12.90;99.10
23289;DHT22;11813;50.834;4.280;2023-02-28T13:52:14;13.30;98.90
23289;DHT22;11813;50.834;4.280;2023-02-28T13:55:01;13.40;97.50
23289;DHT22;11813;50.834;4.280;2023-02-28T14:06:33;14.40;96.90
23289;DHT22;11813;50.834;4.280;2023-02-28T14:11:35;13.90;96.00
23289;DHT22;11813;50.834;4.280;2023-02-28T14:14:02;13.80;95.30
23289;DHT22;11813;50.834;4.280;2023-02-28T14:16:46;13.90;96.60
23289;DHT22;11813;50.834;4.280;2023-02-28T14:19:22;14.00;96.20
23289;DHT22;11813;50.834;4.280;2023-02-28T14:22:09;13.90;96.10
23289;DHT22;11813;50.834;4.280;2023-02-28T14:27:16;13.80;95.60
23289;DHT22;11813;50.834;4.280;2023-02-28T14:37:39;13.40;96.10
23289;DHT22;11813;50.834;4.280;2023-02-28T14:40:16;13.30;95.30
23289;DHT22;11813;50.834;4.280;2023-02-28T14:42:48;13.10;95.60
23289;DHT22;11813;50.834;4.280;2023-02-28T14:45:21;13.40;97.50
23289;DHT22;11813;50.834;4.280;2023-02-28T14:47:49;13.70;95.30
23289;DHT22;11813;50.834;4.280;2023-02-28T14:50:28;13.70;94.70
23289;DHT22;11813;50.834;4.280;2023-02-28T14:52:55;13.90;95.70
23289;DHT22;11813;50.834;4.280;2023-02-28T14:55:29;14.30;94.80
23289;DHT22;11813;50.834;4.280;2023-02-28T14:58:00;14.60;95.20
23289;DHT22;11813;50.834;4.280;2023-02-28T15:00:35;14.10;93.80
23289;DHT22;11813;50.834;4.280;2023-02-28T15:05:57;14.50;94.40
23289;DHT22;11813;50.834;4.280;2023-02-28T15:08:23;14.40;94.40
23289;DHT22;11813;50.834;4.280;2023-02-28T15:13:54;14.70;95.80
23289;DHT22;11813;50.834;4.280;2023-02-28T15:19:05;14.40;93.90
23289;DHT22;11813;50.834;4.280;2023-02-28T15:21:39;14.10;94.00
23289;DHT22;11813;50.834;4.280;2023-02-28T15:24:10;13.90;94.40
23289;DHT22;11813;50.834;4.280;2023-02-28T15:26:41;13.50;94.40
23289;DHT22;11813;50.834;4.280;2023-02-28T15:29:19;12.80;94.70
23289;DHT22;11813;50.834;4.280;2023-02-28T15:34:34;11.60;97.10
23289;DHT22;11813;50.834;4.280;2023-02-28T15:37:01;11.50;96.50
23289;DHT22;11813;50.834;4.280;2023-02-28T15:39:28;11.60;96.70
23289;DHT22;11813;50.834;4.280;2023-02-28T15:42:20;11.40;96.60
23289;DHT22;11813;50.834;4.280;2023-02-28T15:44:46;10.90;97.70
23289;DHT22;11813;50.834;4.280;2023-02-28T15:47:23;10.90;97.80
23289;DHT22;11813;50.834;4.280;2023-02-28T15:52:27;10.70;97.80
23289;DHT22;11813;50.834;4.280;2023-02-28T15:54:53;10.80;97.50
23289;DHT22;11813;50.834;4.280;2023-02-28T15:57:25;10.70;98.00
23289;DHT22;11813;50.834;4.280;2023-02-28T15:59:56;10.40;97.70
23289;DHT22;11813;50.834;4.280;2023-02-28T16:04:56;9.70;98.80
23289;DHT22;11813;50.834;4.280;2023-02-28T16:07:22;9.70;99.30
23289;DHT22;11813;50.834;4.280;2023-02-28T16:09:47;9.50;98.90
23289;DHT22;11813;50.834;4.280;2023-02-28T16:12:13;9.50;99.40
23289;DHT22;11813;50.834;4.280;2023-02-28T16:14:39;9.40;99.30
23289;DHT22;11813;50.834;4.280;2023-02-28T16:17:22;9.60;99.90
23289;DHT22;11813;50.834;4.280;2023-02-28T16:19:48;9.80;99.50
23289;DHT22;11813;50.834;4.280;2023-02-28T16:22:14;10.30;99.40
23289;DHT22;11813;50.834;4.280;2023-02-28T16:24:40;10.60;98.50
23289;DHT22;11813;50.834;4.280;2023-02-28T16:27:06;10.80;98.70
23289;DHT22;11813;50.834;4.280;2023-02-28T16:29:34;10.40;98.20
23289;DHT22;11813;50.834;4.280;2023-02-28T16:32:04;10.00;99.10
23289;DHT22;11813;50.834;4.280;2023-02-28T16:34:30;9.70;99.10
23289;DHT22;11813;50.834;4.280;2023-02-28T16:36:56;9.50;99.90
23289;DHT22;11813;50.834;4.280;2023-02-28T16:39:21;9.80;99.70
23289;DHT22;11813;50.834;4.280;2023-02-28T16:41:48;9.70;99.60
23289;DHT22;11813;50.834;4.280;2023-02-28T16:44:26;9.70;99.90
23289;DHT22;11813;50.834;4.280;2023-02-28T16:46:52;9.30;99.90
23289;DHT22;11813;50.834;4.280;2023-02-28T16:49:18;9.20;99.90
23289;DHT22;11813;50.834;4.280;2023-02-28T16:51:44;9.40;99.90
23289;DHT22;11813;50.834;4.280;2023-02-28T16:54:09;10.00;99.90
23289;DHT22;11813;50.834;4.280;2023-02-28T16:56:35;10.30;99.10
23289;DHT22;11813;50.834;4.280;2023-02-28T16:59:01;10.70;99.50
23289;DHT22;11813;50.834;4.280;2023-02-28T17:01:27;10.50;98.40
23289;DHT22;11813;50.834;4.280;2023-02-28T17:03:54;10.30;99.40
23289;DHT22;11813;50.834;4.280;2023-02-28T17:06:23;10.10;99.90
23289;DHT22;11813;50.834;4.280;2023-02-28T17:08:50;9.70;99.60
23289;DHT22;11813;50.834;4.280;2023-02-28T17:11:16;8.90;99.90
23289;DHT22;11813;50.834;4.280;2023-02-28T17:13:42;8.40;99.90
23289;DHT22;11813;50.834;4.280;2023-02-28T17:16:23;8.20;99.90
23289;DHT22;11813;50.834;4.280;2023-02-28T17:18:50;8.00;99.90
23289;DHT22;11813;50.834;4.280;2023-02-28T17:21:16;7.70;99.90
23289;DHT22;11813;50.834;4.280;2023-02-28T17:23:42;7.50;99.90
23289;DHT22;11813;50.834;4.280;2023-02-28T17:26:16;7.40;99.90
23289;DHT22;11813;50.834;4.280;2023-02-28T17:28:43;7.30;99.90
23289;DHT22;11813;50.834;4.280;2023-02-28T17:31:09;7.30;99.90
23289;DHT22;11813;50.834;4.280;2023-02-28T17:33:35;7.20;99.90
23289;DHT22;11813;50.834;4.280;2023-02-28T17:36:00;7.20;99.90
23289;DHT22;11813;50.834;4.280;2023-02-28T17:38:26;7.00;99.90
23289;DHT22;11813;50.834;4.280;2023-02-28T17:40:52;6.90;99.90
23289;DHT22;11813;50.834;4.280;2023-02-28T17:43:23;6.80;99.90
23289;DHT22;11813;50.834;4.280;2023-02-28T17:45:48;6.60;99.90
23289;DHT22;11813;50.834;4.280;2023-02-28T17:48:14;6.60;99.90
23289;DHT22;11813;50.834;4.280;2023-02-28T17:50:40;6.60;99.90
23289;DHT22;11813;50.834;4.280;2023-02-28T17:53:06;6.70;99.90
23289;DHT22;11813;50.834;4.280;2023-02-28T17:55:31;6.60;99.90
23289;DHT22;11813;50.834;4.280;2023-02-28T17:57:58;6.50;99.90
23289;DHT22;11813;50.834;4.280;2023-02-28T18:00:24;6.60;99.90
23289;DHT22;11813;50.834;4.280;2023-02-28T18:02:50;6.60;99.90
23289;DHT22;11813;50.834;4.280;2023-02-28T18:05:16;6.50;99.90
23289;DHT22;11813;50.834;4.280;2023-02-28T18:07:41;6.40;99.90
23289;DHT22;11813;50.834;4.280;2023-02-28T18:10:16;6.30;99.90
23289;DHT22;11813;50.834;4.280;2023-02-28T18:12:45;6.20;99.90
23289;DHT22;11813;50.834;4.280;2023-02-28T18:15:11;6.30;99.90
23289;DHT22;11813;50.834;4.280;2023-02-28T18:17:36;6.10;99.90
23289;DHT22;11813;50.834;4.280;2023-02-28T18:20:02;6.10;99.90
23289;DHT22;11813;50.834;4.280;2023-02-28T18:22:29;5.90;99.90
23289;DHT22;11813;50.834;4.280;2023-02-28T18:24:55;6.00;99.90
23289;DHT22;11813;50.834;4.280;2023-02-28T18:27:20;6.00;99.90